Time;durP1;ratioP1;P1;durP2;ratioP2;P2;SDS_P1;SDS_P2;PMS_P1;PMS_P2;Temp;Humidity;BMP_temperature;BMP_pressure;BME280_temperature;BME280_humidity;BME280_pressure;Samples;Min_cycle;Max_cycle;Signal;HPM_P1;HPM_P2
2021/06/20 00:00:27;;;;;;;20.90;18.90;;;24.20;62.00;;;;;;5092178;28;20174;-68
2021/06/20 00:02:55;;;;;;;21.58;19.63;;;24.20;62.40;;;;;;5091669;28;20200;-69
2021/06/20 00:05:29;;;;;;;20.88;19.10;;;24.20;62.50;;;;;;5091199;28;20197;-69
2021/06/20 00:07:55;;;;;;;21.52;19.63;;;24.20;62.40;;;;;;5092098;28;20181;-69
2021/06/20 00:10:25;;;;;;;23.10;21.10;;;24.20;62.50;;;;;;5090846;28;20201;-68
2021/06/20 00:12:50;;;;;;;21.25;19.35;;;24.10;62.60;;;;;;5091420;28;20560;-68
2021/06/20 00:15:17;;;;;;;23.05;20.85;;;24.10;62.70;;;;;;5091687;28;20257;-68
2021/06/20 00:17:42;;;;;;;22.02;19.95;;;24.10;63.10;;;;;;5090664;28;20182;-69
2021/06/20 00:20:08;;;;;;;20.23;18.50;;;24.00;63.90;;;;;;5091888;28;20228;-69
2021/06/20 00:22:34;;;;;;;19.98;18.17;;;24.00;63.10;;;;;;5091550;28;20525;-69
2021/06/20 00:25:00;;;;;;;22.75;20.52;;;24.10;63.10;;;;;;5090957;28;20185;-69
2021/06/20 00:27:25;;;;;;;21.48;19.60;;;24.10;63.00;;;;;;5091626;28;20170;-68
2021/06/20 00:29:51;;;;;;;23.10;21.02;;;24.10;63.00;;;;;;5091259;28;20221;-69
2021/06/20 00:32:16;;;;;;;23.17;21.17;;;24.00;63.20;;;;;;5090531;28;20237;-70
2021/06/20 00:34:42;;;;;;;20.35;18.55;;;24.10;63.30;;;;;;5090840;28;20651;-69
2021/06/20 00:37:07;;;;;;;21.48;19.55;;;24.00;63.40;;;;;;5091287;28;20170;-69
2021/06/20 00:39:33;;;;;;;21.63;19.63;;;24.00;63.50;;;;;;5090651;28;20181;-70
2021/06/20 00:41:59;;;;;;;22.08;20.00;;;24.00;63.50;;;;;;5091472;28;20181;-71
2021/06/20 00:44:24;;;;;;;22.75;20.67;;;24.00;63.80;;;;;;5091448;28;20231;-69
2021/06/20 00:46:50;;;;;;;22.45;20.33;;;24.00;63.70;;;;;;5090364;28;20646;-70
2021/06/20 00:49:16;;;;;;;20.23;18.48;;;24.00;63.70;;;;;;5091497;28;20210;-68
2021/06/20 00:51:42;;;;;;;22.40;20.40;;;24.00;63.90;;;;;;5091173;28;20620;-68
2021/06/20 00:54:08;;;;;;;22.08;20.05;;;24.00;64.00;;;;;;5090764;28;20287;-68
2021/06/20 00:56:33;;;;;;;21.13;19.30;;;24.00;64.10;;;;;;5090974;28;20178;-68
2021/06/20 00:59:02;;;;;;;21.48;19.55;;;24.00;64.30;;;;;;5091280;28;20172;-68
2021/06/20 01:01:32;;;;;;;20.73;18.83;;;24.00;64.50;;;;;;5072684;28;20572;-69
2021/06/20 01:03:58;;;;;;;21.13;19.13;;;24.00;64.70;;;;;;5091468;28;20315;-69
2021/06/20 01:06:24;;;;;;;21.08;19.17;;;24.00;64.60;;;;;;5090562;28;20257;-68
2021/06/20 01:08:49;;;;;;;21.05;18.88;;;24.00;64.80;;;;;;5090902;28;20320;-68
2021/06/20 01:11:15;;;;;;;19.95;18.15;;;24.00;64.90;;;;;;5073196;28;20173;-68
2021/06/20 01:13:40;;;;;;;18.00;16.38;;;24.10;65.10;;;;;;5090071;28;20182;-68
2021/06/20 01:16:06;;;;;;;19.30;17.58;;;24.00;65.30;;;;;;5072756;28;20173;-68
2021/06/20 01:18:31;;;;;;;19.75;17.90;;;24.00;65.30;;;;;;5090968;28;20170;-68
2021/06/20 01:20:57;;;;;;;18.98;17.27;;;24.00;65.70;;;;;;5090543;28;20173;-68
2021/06/20 01:23:22;;;;;;;17.75;16.02;;;24.00;65.90;;;;;;5091020;28;20174;-68
2021/06/20 01:25:49;;;;;;;17.40;15.60;;;23.90;66.00;;;;;;5090806;28;20505;-68
2021/06/20 01:28:15;;;;;;;16.80;15.27;;;24.00;66.30;;;;;;5090200;28;20181;-69
2021/06/20 01:30:44;;;;;;;16.05;14.65;;;24.00;66.30;;;;;;5090620;28;20176;-68
2021/06/20 01:33:10;;;;;;;16.25;14.75;;;24.00;66.30;;;;;;5090898;28;20229;-70
2021/06/20 01:35:36;;;;;;;15.80;14.30;;;24.00;66.40;;;;;;5090110;28;20169;-69
2021/06/20 01:38:03;;;;;;;14.60;13.30;;;24.00;66.60;;;;;;5091020;28;20192;-71
2021/06/20 01:40:28;;;;;;;14.43;13.05;;;24.00;66.80;;;;;;5091020;28;20181;-70
2021/06/20 01:42:54;;;;;;;12.00;10.82;;;24.00;67.00;;;;;;5089896;28;20205;-70
2021/06/20 01:45:20;;;;;;;14.55;13.18;;;24.00;66.80;;;;;;5090740;28;20608;-69
2021/06/20 01:47:46;;;;;;;14.43;13.13;;;24.00;67.00;;;;;;5093402;28;20174;-68
2021/06/20 01:50:13;;;;;;;13.02;11.73;;;24.10;67.10;;;;;;5093880;28;20589;-68
2021/06/20 01:52:40;;;;;;;11.15;10.15;;;24.00;67.20;;;;;;5094411;28;20170;-68
2021/06/20 01:55:06;;;;;;;11.45;10.27;;;24.00;67.20;;;;;;5094622;28;20288;-68
2021/06/20 01:57:33;;;;;;;11.55;10.10;;;24.10;67.40;;;;;;5093377;28;20196;-68
2021/06/20 02:00:00;;;;;;;10.85;9.85;;;24.00;67.50;;;;;;5094267;28;20177;-69
2021/06/20 02:02:27;;;;;;;9.55;8.73;;;24.00;67.50;;;;;;5076624;28;20181;-68
2021/06/20 02:04:55;;;;;;;9.40;8.60;;;24.00;67.60;;;;;;5093559;28;20189;-68
2021/06/20 02:07:20;;;;;;;11.40;10.40;;;24.00;67.30;;;;;;5094374;28;20181;-68
2021/06/20 02:09:48;;;;;;;10.57;9.50;;;24.10;67.70;;;;;;5093093;28;20209;-68
2021/06/20 02:12:14;;;;;;;11.43;10.32;;;24.10;67.80;;;;;;5094050;28;20186;-68
2021/06/20 02:14:40;;;;;;;11.63;10.57;;;24.00;67.50;;;;;;5093956;28;20265;-68
2021/06/20 02:17:25;;;;;;;11.27;9.63;;;24.00;67.70;;;;;;5093580;28;20200;-68
2021/06/20 02:19:51;;;;;;;10.85;9.75;;;24.00;68.00;;;;;;5093721;28;20185;-68
2021/06/20 02:22:17;;;;;;;11.15;10.05;;;24.00;68.00;;;;;;5093847;28;20580;-68
2021/06/20 02:24:42;;;;;;;10.02;9.13;;;24.00;68.10;;;;;;5093025;28;20250;-68
2021/06/20 02:27:10;;;;;;;10.98;9.98;;;24.00;68.10;;;;;;5093733;28;20177;-68
2021/06/20 02:29:37;;;;;;;10.30;9.20;;;24.00;68.20;;;;;;5093733;28;20220;-68
2021/06/20 02:32:03;;;;;;;10.98;9.98;;;24.00;68.20;;;;;;5093004;28;20302;-69
2021/06/20 02:34:28;;;;;;;10.75;9.68;;;24.00;68.40;;;;;;5093777;28;20539;-68
2021/06/20 02:36:54;;;;;;;11.15;10.05;;;24.00;68.40;;;;;;5093558;28;20176;-69
2021/06/20 02:39:19;;;;;;;10.48;9.45;;;24.00;68.70;;;;;;5092901;28;20166;-70
2021/06/20 02:41:49;;;;;;;11.52;9.98;;;24.00;68.60;;;;;;5093609;28;20178;-69
2021/06/20 02:44:15;;;;;;;10.50;9.60;;;24.00;68.80;;;;;;5093494;28;20185;-68
2021/06/20 02:46:40;;;;;;;9.55;8.57;;;24.00;68.90;;;;;;5092701;28;20339;-69
2021/06/20 02:49:06;;;;;;;9.57;8.68;;;24.00;68.80;;;;;;5093557;28;20273;-68
2021/06/20 02:51:31;;;;;;;10.73;9.73;;;24.00;69.00;;;;;;5093153;28;20166;-68
2021/06/20 02:53:57;;;;;;;11.63;8.85;;;24.00;68.90;;;;;;5074324;28;20627;-68
2021/06/20 02:56:23;;;;;;;10.48;9.27;;;23.90;69.10;;;;;;5093519;28;20174;-68
2021/06/20 02:58:48;;;;;;;11.70;10.45;;;24.00;69.40;;;;;;5091497;28;20182;-68
2021/06/20 03:01:14;;;;;;;11.00;10.02;;;23.90;69.50;;;;;;5092906;28;20178;-69
2021/06/20 03:03:39;;;;;;;11.57;10.43;;;23.90;69.50;;;;;;5092932;28;20176;-69
2021/06/20 03:06:06;;;;;;;13.32;11.00;;;23.90;69.70;;;;;;5092523;28;20186;-68
2021/06/20 03:08:31;;;;;;;11.15;10.13;;;23.90;69.80;;;;;;5092611;28;20280;-69
2021/06/20 03:10:57;;;;;;;10.90;9.90;;;23.90;70.10;;;;;;5093325;28;20193;-68
2021/06/20 03:13:22;;;;;;;11.27;10.18;;;23.90;70.20;;;;;;5092315;28;20628;-68
2021/06/20 03:15:48;;;;;;;11.70;10.60;;;23.90;70.30;;;;;;5092678;28;20173;-69
2021/06/20 03:18:13;;;;;;;11.85;10.48;;;23.80;70.10;;;;;;5092775;28;20178;-68
2021/06/20 03:20:39;;;;;;;13.43;12.13;;;23.90;70.10;;;;;;5091805;28;20181;-68
2021/06/20 03:23:08;;;;;;;13.68;12.35;;;23.90;70.10;;;;;;5092629;28;20174;-69
2021/06/20 03:25:33;;;;;;;17.30;15.70;;;23.90;70.10;;;;;;5092488;28;20691;-68
2021/06/20 03:27:59;;;;;;;18.98;17.17;;;23.90;71.00;;;;;;5091889;28;20273;-69
2021/06/20 03:30:24;;;;;;;20.83;18.73;;;23.90;70.10;;;;;;5092343;28;20224;-68
2021/06/20 03:32:50;;;;;;;20.05;18.15;;;23.80;70.20;;;;;;5092228;28;20221;-69
2021/06/20 03:35:15;;;;;;;25.17;22.67;;;24.10;70.20;;;;;;5091768;28;20257;-69
2021/06/20 03:37:41;;;;;;;25.27;22.67;;;23.80;70.00;;;;;;5092237;28;20256;-69
2021/06/20 03:40:07;;;;;;;25.58;23.23;;;23.80;70.10;;;;;;5092683;28;20174;-70
2021/06/20 03:42:32;;;;;;;27.27;24.33;;;23.80;70.20;;;;;;5072931;28;20634;-69
2021/06/20 03:44:58;;;;;;;28.70;25.90;;;23.70;70.40;;;;;;5092491;28;20265;-69
2021/06/20 03:47:23;;;;;;;27.02;24.48;;;23.60;70.70;;;;;;5092129;28;20655;-68
2021/06/20 03:49:49;;;;;;;29.35;26.42;;;23.60;70.80;;;;;;5091046;28;20764;-68
2021/06/20 03:52:14;;;;;;;28.80;25.83;;;23.60;70.50;;;;;;5092112;28;20304;-68
2021/06/20 03:54:40;;;;;;;31.88;28.63;;;23.60;71.80;;;;;;5091977;28;20264;-68
2021/06/20 03:57:05;;;;;;;30.45;27.50;;;23.60;71.00;;;;;;5091413;28;20177;-68
2021/06/20 03:59:31;;;;;;;30.98;27.98;;;23.60;70.80;;;;;;5091922;28;20560;-69
2021/06/20 04:01:56;;;;;;;27.98;25.27;;;23.60;71.80;;;;;;5092048;28;20293;-70
2021/06/20 04:04:22;;;;;;;31.52;28.45;;;23.50;70.90;;;;;;5091506;28;20693;-68
2021/06/20 04:06:48;;;;;;;32.08;28.88;;;23.50;70.70;;;;;;5091745;28;20589;-68
2021/06/20 04:09:13;;;;;;;30.48;27.50;;;23.50;70.20;;;;;;5091377;28;20221;-67
2021/06/20 04:11:39;;;;;;;30.60;27.67;;;23.60;69.80;;;;;;5091941;28;20177;-67
2021/06/20 04:14:04;;;;;;;30.92;27.98;;;23.60;69.30;;;;;;5091910;28;20494;-67
2021/06/20 04:16:30;;;;;;;29.40;26.52;;;23.70;68.80;;;;;;5090975;28;20814;-67
2021/06/20 04:18:57;;;;;;;26.80;24.02;;;23.70;68.50;;;;;;5092070;28;20201;-67
2021/06/20 04:21:23;;;;;;;29.10;26.20;;;23.70;68.40;;;;;;5091758;28;20287;-67
2021/06/20 04:23:48;;;;;;;30.30;27.30;;;23.70;67.90;;;;;;5091058;28;20258;-67
2021/06/20 04:26:14;;;;;;;29.77;26.63;;;23.70;67.60;;;;;;5092050;28;20181;-67
2021/06/20 04:28:41;;;;;;;27.40;24.63;;;23.70;67.40;;;;;;5091459;28;20659;-67
2021/06/20 04:31:06;;;;;;;27.27;24.40;;;23.60;67.00;;;;;;5091262;28;20186;-68
2021/06/20 04:33:32;;;;;;;27.10;24.30;;;23.70;66.80;;;;;;5091333;28;20225;-68
2021/06/20 04:35:58;;;;;;;26.65;23.95;;;23.60;66.60;;;;;;5091906;28;20174;-68
2021/06/20 04:38:23;;;;;;;24.40;21.90;;;23.60;66.50;;;;;;5090937;28;20185;-68
2021/06/20 04:40:51;;;;;;;27.83;24.92;;;23.70;66.40;;;;;;5091300;28;20478;-68
2021/06/20 04:46:02;;;;;;;29.17;26.27;;;23.60;66.10;;;;;;5076883;28;20502;-68
2021/06/20 04:48:28;;;;;;;27.33;24.40;;;23.70;65.90;;;;;;5091511;28;20161;-67
2021/06/20 04:50:54;;;;;;;28.13;25.15;;;23.60;65.80;;;;;;5073178;28;20188;-67
2021/06/20 04:53:19;;;;;;;28.08;25.27;;;23.60;65.70;;;;;;5090753;28;20166;-67
2021/06/20 04:55:45;;;;;;;26.88;24.17;;;23.60;65.70;;;;;;5073381;28;20208;-67
2021/06/20 04:58:10;;;;;;;26.35;23.63;;;23.60;65.60;;;;;;5073076;28;20249;-68
2021/06/20 05:00:36;;;;;;;26.50;23.58;;;23.60;65.60;;;;;;5090628;28;20174;-67
2021/06/20 05:03:01;;;;;;;27.13;24.20;;;23.60;65.50;;;;;;5091524;28;20185;-68
2021/06/20 05:05:27;;;;;;;27.15;24.27;;;23.60;65.40;;;;;;5090536;28;20196;-68
2021/06/20 05:07:52;;;;;;;28.08;25.23;;;23.60;65.50;;;;;;5091252;28;20174;-68
2021/06/20 05:10:18;;;;;;;28.88;25.90;;;23.60;65.50;;;;;;5091065;28;20308;-67
2021/06/20 05:12:43;;;;;;;27.52;24.75;;;23.60;65.40;;;;;;5072261;28;20219;-67
2021/06/20 05:15:09;;;;;;;28.05;25.25;;;23.60;65.40;;;;;;5091551;28;20173;-67
2021/06/20 05:17:34;;;;;;;27.58;24.83;;;23.60;65.40;;;;;;5090857;28;20274;-67
2021/06/20 05:20:00;;;;;;;29.67;22.58;;;23.60;65.30;;;;;;5090559;28;20666;-67
2021/06/20 05:22:25;;;;;;;28.67;25.77;;;23.60;65.30;;;;;;5093525;28;20170;-67
2021/06/20 05:24:51;;;;;;;27.40;24.50;;;23.60;65.30;;;;;;5094923;28;20640;-67
2021/06/20 05:27:16;;;;;;;26.15;23.35;;;23.60;65.40;;;;;;5094520;28;20223;-67
2021/06/20 05:29:43;;;;;;;27.80;24.90;;;23.60;65.20;;;;;;5094932;28;20201;-67
2021/06/20 05:32:08;;;;;;;26.95;24.13;;;23.60;65.30;;;;;;5094834;28;20232;-68
2021/06/20 05:34:34;;;;;;;27.35;24.50;;;23.60;65.20;;;;;;5094091;28;20173;-68
2021/06/20 05:36:59;;;;;;;27.85;25.05;;;23.60;65.30;;;;;;5095187;28;20603;-69
2021/06/20 05:39:25;;;;;;;27.70;24.80;;;23.60;65.30;;;;;;5095221;28;20173;-69
2021/06/20 05:41:50;;;;;;;28.48;25.38;;;23.60;65.30;;;;;;5094270;28;20515;-68
2021/06/20 05:44:16;;;;;;;25.70;23.02;;;23.90;65.50;;;;;;5094920;28;20193;-68
2021/06/20 05:46:41;;;;;;;25.75;23.08;;;23.60;65.30;;;;;;5094805;28;20166;-68
2021/06/20 05:49:07;;;;;;;27.77;24.80;;;23.60;65.40;;;;;;5094225;28;20209;-68
2021/06/20 05:51:32;;;;;;;26.60;23.77;;;23.60;65.40;;;;;;5094604;28;20632;-67
2021/06/20 05:53:58;;;;;;;26.63;23.83;;;23.50;65.40;;;;;;5094804;28;20277;-67
2021/06/20 05:56:23;;;;;;;30.58;23.90;;;23.60;65.30;;;;;;5093841;28;20201;-68
2021/06/20 05:58:49;;;;;;;24.95;22.45;;;23.60;65.30;;;;;;5094265;28;20174;-68
2021/06/20 06:01:14;;;;;;;25.98;23.33;;;23.60;65.20;;;;;;5094634;28;20174;-68
2021/06/20 06:03:40;;;;;;;28.30;25.27;;;23.50;65.10;;;;;;5093474;28;20655;-68
2021/06/20 06:06:05;;;;;;;27.20;24.30;;;23.60;65.30;;;;;;5094553;28;20178;-68
2021/06/20 06:08:31;;;;;;;27.75;24.70;;;23.50;65.10;;;;;;5094362;28;20201;-68
2021/06/20 06:10:56;;;;;;;24.48;21.92;;;23.50;65.10;;;;;;5093977;28;20189;-67
2021/06/20 06:13:22;;;;;;;26.73;23.17;;;23.50;65.10;;;;;;5094812;28;20213;-67
2021/06/20 06:15:47;;;;;;;27.23;24.48;;;23.50;65.10;;;;;;5093474;28;20174;-67
2021/06/20 06:18:13;;;;;;;25.73;23.08;;;23.60;65.30;;;;;;5094231;28;20166;-67
2021/06/20 06:20:38;;;;;;;28.08;24.40;;;23.50;65.20;;;;;;5094332;28;20170;-67
2021/06/20 06:23:04;;;;;;;28.05;24.17;;;23.50;65.20;;;;;;5093821;28;20170;-67
2021/06/20 06:25:29;;;;;;;24.23;21.90;;;23.50;65.30;;;;;;5094406;28;20505;-66
2021/06/20 06:27:55;;;;;;;24.67;22.15;;;23.60;65.30;;;;;;5094360;28;20514;-66
2021/06/20 06:30:21;;;;;;;26.70;23.85;;;23.60;65.20;;;;;;5093631;28;20210;-67
2021/06/20 06:32:46;;;;;;;27.02;24.10;;;23.60;65.20;;;;;;5092604;28;20278;-68
2021/06/20 06:35:12;;;;;;;26.58;23.75;;;23.60;65.20;;;;;;5093805;28;20178;-68
2021/06/20 06:37:39;;;;;;;26.38;23.10;;;23.60;65.20;;;;;;5093057;28;20212;-69
2021/06/20 06:40:05;;;;;;;25.25;22.65;;;23.60;65.30;;;;;;5093919;28;20174;-68
2021/06/20 06:42:31;;;;;;;24.15;21.52;;;23.80;65.40;;;;;;5093518;28;20546;-68
2021/06/20 06:44:57;;;;;;;26.88;22.90;;;23.60;65.30;;;;;;5093025;28;20174;-67
2021/06/20 06:47:23;;;;;;;24.15;21.65;;;23.60;65.20;;;;;;5093450;28;20177;-67
2021/06/20 06:49:49;;;;;;;24.98;22.38;;;23.50;65.90;;;;;;5093180;28;20372;-67
2021/06/20 06:52:14;;;;;;;27.92;23.58;;;23.50;65.00;;;;;;5092706;28;20257;-66
2021/06/20 06:54:40;;;;;;;23.05;20.55;;;23.60;65.10;;;;;;5093039;28;20177;-66
2021/06/20 06:57:06;;;;;;;22.55;20.23;;;23.50;65.00;;;;;;5093333;28;20185;-67
2021/06/20 06:59:31;;;;;;;24.95;22.27;;;23.50;64.80;;;;;;5092353;28;20181;-68
2021/06/20 07:01:57;;;;;;;25.25;22.55;;;23.50;64.60;;;;;;5093432;28;20672;-68
2021/06/20 07:04:23;;;;;;;26.73;22.20;;;23.60;64.40;;;;;;5093463;28;20264;-68
2021/06/20 07:06:49;;;;;;;25.48;22.77;;;23.60;64.10;;;;;;5092058;28;20636;-67
2021/06/20 07:09:14;;;;;;;30.63;23.35;;;23.60;64.10;;;;;;5093322;28;20210;-68
2021/06/20 07:11:40;;;;;;;25.10;22.38;;;23.60;64.00;;;;;;5092802;28;20214;-68
2021/06/20 07:14:06;;;;;;;24.10;21.60;;;23.60;64.00;;;;;;5092297;28;20210;-67
2021/06/20 07:16:32;;;;;;;26.00;23.20;;;23.60;64.00;;;;;;5092577;28;20170;-68
2021/06/20 07:18:57;;;;;;;26.15;23.35;;;23.50;64.00;;;;;;5092969;28;20202;-66
2021/06/20 07:21:23;;;;;;;26.40;23.13;;;23.50;63.80;;;;;;5092312;28;20177;-68
2021/06/20 07:23:48;;;;;;;24.13;21.58;;;23.60;63.80;;;;;;5092405;28;20177;-67
2021/06/20 07:26:14;;;;;;;25.70;22.52;;;23.50;63.70;;;;;;5092466;28;20208;-67
2021/06/20 07:28:39;;;;;;;25.63;22.83;;;23.50;63.40;;;;;;5092829;28;20169;-66
2021/06/20 07:31:05;;;;;;;26.48;22.80;;;23.50;63.40;;;;;;5092674;28;20185;-67
2021/06/20 07:33:30;;;;;;;27.40;23.52;;;23.50;63.40;;;;;;5091554;28;20225;-68
2021/06/20 07:35:57;;;;;;;25.08;22.23;;;23.40;63.30;;;;;;5093086;28;20280;-68
2021/06/20 07:38:23;;;;;;;29.35;25.30;;;23.40;63.30;;;;;;5092714;28;20532;-68
2021/06/20 07:40:49;;;;;;;27.60;23.50;;;23.40;63.20;;;;;;5091688;28;20176;-68
2021/06/20 07:43:14;;;;;;;28.00;24.85;;;23.40;63.20;;;;;;5092674;28;20251;-67
2021/06/20 07:45:40;;;;;;;30.65;24.83;;;23.50;63.30;;;;;;5073283;28;20265;-67
2021/06/20 07:48:10;;;;;;;25.80;23.17;;;23.50;63.40;;;;;;5091857;28;20181;-67
2021/06/20 07:50:36;;;;;;;24.52;22.02;;;23.50;63.40;;;;;;5092290;28;20516;-67
2021/06/20 07:53:01;;;;;;;26.35;23.52;;;23.40;63.30;;;;;;5092565;28;20178;-66
2021/06/20 07:55:27;;;;;;;26.42;23.55;;;23.40;63.20;;;;;;5091761;28;20181;-67
2021/06/20 07:57:52;;;;;;;27.50;22.85;;;23.50;63.20;;;;;;5091775;28;20170;-67
2021/06/20 08:00:18;;;;;;;25.02;22.30;;;23.50;63.20;;;;;;5092028;28;20180;-67
2021/06/20 08:02:44;;;;;;;25.25;22.55;;;23.50;63.10;;;;;;5091290;28;20261;-68
2021/06/20 08:05:10;;;;;;;24.55;21.98;;;23.50;62.80;;;;;;5091892;28;20260;-67
2021/06/20 08:07:35;;;;;;;24.73;21.38;;;23.50;62.80;;;;;;5091565;28;20239;-68
2021/06/20 08:10:01;;;;;;;24.05;21.38;;;23.50;62.80;;;;;;5091048;28;20216;-68
2021/06/20 08:12:27;;;;;;;23.83;21.33;;;23.50;62.80;;;;;;5091657;28;20174;-68
2021/06/20 08:14:52;;;;;;;23.67;21.15;;;23.50;62.80;;;;;;5091419;28;20214;-68
2021/06/20 08:17:18;;;;;;;22.38;19.98;;;23.60;62.80;;;;;;5091288;28;20205;-67
2021/06/20 08:19:44;;;;;;;21.42;19.10;;;23.50;62.80;;;;;;5091620;28;20173;-67
2021/06/20 08:22:10;;;;;;;22.40;19.70;;;23.50;62.80;;;;;;5091807;28;20244;-67
2021/06/20 08:24:36;;;;;;;22.00;19.13;;;23.60;62.90;;;;;;5090342;28;20273;-67
2021/06/20 08:27:02;;;;;;;21.65;18.80;;;23.60;62.80;;;;;;5091456;28;20177;-67
2021/06/20 08:29:28;;;;;;;19.40;17.27;;;23.70;62.70;;;;;;5090669;28;20671;-67
2021/06/20 08:31:53;;;;;;;18.17;16.38;;;23.70;62.60;;;;;;5091359;28;20180;-68
2021/06/20 08:34:19;;;;;;;16.90;15.20;;;23.70;62.40;;;;;;5091751;28;20177;-70
2021/06/20 08:36:44;;;;;;;17.02;14.38;;;23.50;62.30;;;;;;5090540;28;20740;-71
2021/06/20 08:39:10;;;;;;;15.55;14.05;;;23.70;62.10;;;;;;5091593;28;20173;-72
2021/06/20 08:41:41;;;;;;;16.42;14.80;;;23.70;62.10;;;;;;5091104;28;20170;-67
2021/06/20 08:44:20;;;;;;;15.95;14.35;;;23.60;62.00;;;;;;5070491;28;20186;-66
2021/06/20 08:46:46;;;;;;;16.25;14.55;;;23.60;61.80;;;;;;5071310;28;20222;-69
2021/06/20 08:49:12;;;;;;;16.92;15.13;;;23.60;62.20;;;;;;5071066;28;20240;-68
2021/06/20 08:51:39;;;;;;;18.13;16.27;;;23.60;62.10;;;;;;5071735;28;20624;-67
2021/06/20 08:54:05;;;;;;;19.02;15.95;;;23.50;61.90;;;;;;5073306;28;20225;-68
2021/06/20 08:56:31;;;;;;;18.25;16.35;;;23.40;62.20;;;;;;5089989;28;20173;-68
2021/06/20 08:58:56;;;;;;;20.58;17.60;;;23.30;62.30;;;;;;5090447;28;20169;-68
2021/06/20 09:01:22;;;;;;;19.95;17.42;;;23.30;62.30;;;;;;5091389;28;20223;-68
2021/06/20 09:03:47;;;;;;;21.75;16.90;;;23.20;62.60;;;;;;5072835;28;20267;-68
2021/06/20 09:06:17;;;;;;;19.92;17.13;;;23.10;62.50;;;;;;5090821;28;20209;-68
2021/06/20 09:08:50;;;;;;;20.02;16.92;;;23.10;63.50;;;;;;5090945;28;20178;-68
2021/06/20 09:11:22;;;;;;;18.50;15.75;;;23.20;62.70;;;;;;5091123;28;20186;-68
2021/06/20 09:13:48;;;;;;;20.42;17.88;;;23.30;62.50;;;;;;5090405;28;20193;-68
2021/06/20 09:16:13;;;;;;;18.40;16.02;;;23.20;62.40;;;;;;5091310;28;20550;-67
2021/06/20 09:18:51;;;;;;;17.45;15.57;;;23.20;62.40;;;;;;5090121;28;20173;-67
2021/06/20 09:21:17;;;;;;;18.63;15.55;;;23.30;62.20;;;;;;5091324;28;20177;-67
2021/06/20 09:23:42;;;;;;;17.73;15.80;;;23.30;62.20;;;;;;5091281;28;20706;-67
2021/06/20 09:26:08;;;;;;;15.55;13.95;;;23.40;62.10;;;;;;5090816;28;20620;-67
2021/06/20 09:28:35;;;;;;;17.00;14.40;;;23.40;61.90;;;;;;5091052;28;20644;-67
2021/06/20 09:31:03;;;;;;;16.88;14.32;;;23.40;62.00;;;;;;5091196;28;20532;-67
2021/06/20 09:33:32;;;;;;;16.70;15.00;;;23.40;61.90;;;;;;5090774;28;20239;-68
2021/06/20 09:35:58;;;;;;;16.70;14.95;;;23.40;61.90;;;;;;5091149;28;20178;-69
2021/06/20 09:38:48;;;;;;;15.50;13.65;;;23.40;61.90;;;;;;5091442;28;20174;-68
2021/06/20 09:41:15;;;;;;;16.27;14.00;;;23.50;62.00;;;;;;5089625;28;20193;-68
2021/06/20 09:43:56;;;;;;;17.50;14.48;;;23.50;61.90;;;;;;5090668;28;20174;-68
2021/06/20 09:46:22;;;;;;;16.15;13.95;;;23.40;61.70;;;;;;5090872;28;20597;-68
2021/06/20 09:48:48;;;;;;;14.25;12.63;;;23.50;61.70;;;;;;5071646;28;20198;-67
2021/06/20 09:51:22;;;;;;;14.00;12.15;;;23.50;61.70;;;;;;5090675;28;20641;-68
2021/06/20 09:53:49;;;;;;;12.88;11.45;;;23.50;61.70;;;;;;5089831;28;20705;-68
2021/06/20 09:56:41;;;;;;;11.52;10.32;;;23.60;61.70;;;;;;5090841;28;20170;-68
2021/06/20 09:59:07;;;;;;;12.35;11.05;;;23.70;61.80;;;;;;5086914;28;20190;-66
2021/06/20 10:01:35;;;;;;;9.85;8.85;;;23.80;61.40;;;;;;5090387;28;20189;-68
2021/06/20 10:04:00;;;;;;;12.40;10.10;;;23.90;61.20;;;;;;5091348;28;20215;-70
2021/06/20 10:06:26;;;;;;;11.68;9.48;;;24.10;61.00;;;;;;5091578;28;20178;-67
2021/06/20 10:08:52;;;;;;;9.85;8.30;;;24.20;60.60;;;;;;5092941;28;20651;-67
2021/06/20 10:11:17;;;;;;;9.48;8.50;;;24.30;60.60;;;;;;5094857;28;20596;-67
2021/06/20 10:13:43;;;;;;;9.20;7.85;;;24.30;60.60;;;;;;5094493;28;20289;-68
2021/06/20 10:16:18;;;;;;;9.10;7.97;;;24.40;60.70;;;;;;5094065;28;20574;-67
2021/06/20 10:19:17;;;;;;;8.48;7.63;;;24.30;61.00;;;;;;5076562;28;20165;-67
2021/06/20 10:21:47;;;;;;;8.18;7.35;;;24.30;61.20;;;;;;5076294;28;20205;-69
2021/06/20 10:24:17;;;;;;;8.10;7.20;;;24.40;61.30;;;;;;5093964;28;20244;-69
2021/06/20 10:27:04;;;;;;;8.75;7.45;;;24.40;61.30;;;;;;5094447;28;20181;-68
2021/06/20 10:29:38;;;;;;;7.03;6.38;;;24.40;61.30;;;;;;5093469;28;20201;-69
2021/06/20 10:32:17;;;;;;;7.18;6.47;;;24.50;61.30;;;;;;5094160;28;20195;-71
2021/06/20 10:34:51;;;;;;;7.32;6.63;;;24.50;61.20;;;;;;5094288;28;20200;-69
2021/06/20 10:37:19;;;;;;;7.13;6.40;;;24.50;61.40;;;;;;5093341;28;20513;-69
2021/06/20 10:39:51;;;;;;;7.53;6.82;;;24.50;61.20;;;;;;5093969;28;20174;-71
2021/06/20 10:42:17;;;;;;;6.90;6.22;;;24.60;61.20;;;;;;5094169;28;20261;-69
2021/06/20 10:44:45;;;;;;;6.60;6.00;;;24.70;61.00;;;;;;5092900;28;20683;-70
2021/06/20 10:47:11;;;;;;;6.75;5.80;;;24.70;60.90;;;;;;5094327;28;20174;-69
2021/06/20 10:49:37;;;;;;;6.60;6.00;;;24.80;60.90;;;;;;5093830;28;20259;-68
2021/06/20 10:52:14;;;;;;;6.72;6.13;;;24.80;60.80;;;;;;5093551;28;20168;-68
2021/06/20 10:54:39;;;;;;;6.55;5.95;;;24.80;61.00;;;;;;5093636;28;20181;-68
2021/06/20 10:57:06;;;;;;;5.97;5.40;;;24.70;61.10;;;;;;5093509;28;20272;-68
2021/06/20 10:59:31;;;;;;;6.85;6.10;;;24.80;61.20;;;;;;5093112;28;20204;-68
2021/06/20 11:01:57;;;;;;;6.45;5.85;;;24.80;61.10;;;;;;5093720;28;20238;-69
2021/06/20 11:04:22;;;;;;;6.50;5.90;;;24.80;61.20;;;;;;5074972;28;20166;-69
2021/06/20 11:06:55;;;;;;;6.15;5.55;;;24.80;61.10;;;;;;5093370;28;20166;-69
2021/06/20 11:09:22;;;;;;;6.47;5.88;;;24.90;60.90;;;;;;5093695;28;20202;-68
2021/06/20 11:11:52;;;;;;;5.95;5.45;;;25.00;60.70;;;;;;5092454;28;20181;-69
2021/06/20 11:14:19;;;;;;;5.40;5.00;;;24.90;60.70;;;;;;5093637;28;20246;-68
2021/06/20 11:16:50;;;;;;;5.63;5.13;;;24.90;60.80;;;;;;5093229;28;20217;-68
2021/06/20 11:19:26;;;;;;;6.10;5.53;;;24.90;60.70;;;;;;5091797;28;20174;-67
2021/06/20 11:21:56;;;;;;;6.28;5.68;;;25.00;60.70;;;;;;5093178;28;20238;-68
2021/06/20 11:24:24;;;;;;;5.80;5.20;;;25.00;60.70;;;;;;5093145;28;20170;-68
2021/06/20 11:27:01;;;;;;;7.07;5.57;;;24.90;60.70;;;;;;5092218;28;20185;-69
2021/06/20 11:29:36;;;;;;;5.65;5.05;;;24.80;60.80;;;;;;5092998;28;20664;-68
2021/06/20 11:32:02;;;;;;;5.75;5.22;;;24.80;60.80;;;;;;5092989;28;20223;-69
2021/06/20 11:34:28;;;;;;;6.03;5.43;;;24.80;60.80;;;;;;5092262;28;20178;-68
2021/06/20 11:36:53;;;;;;;6.05;5.55;;;24.80;60.70;;;;;;5092542;28;20257;-68
2021/06/20 11:39:19;;;;;;;7.97;5.45;;;24.80;60.70;;;;;;5092038;28;20612;-67
2021/06/20 11:41:46;;;;;;;6.22;5.53;;;24.80;60.70;;;;;;5092607;28;20239;-67
2021/06/20 11:44:12;;;;;;;4.97;4.57;;;24.90;60.80;;;;;;5092898;28;20201;-67
2021/06/20 11:46:41;;;;;;;5.43;4.93;;;24.90;60.60;;;;;;5091817;28;20714;-66
2021/06/20 11:49:08;;;;;;;5.35;4.85;;;25.00;60.40;;;;;;5092697;28;20210;-66
2021/06/20 11:51:46;;;;;;;5.22;4.82;;;25.10;60.10;;;;;;5092343;28;20181;-66
2021/06/20 11:54:19;;;;;;;6.75;5.50;;;25.20;60.20;;;;;;5091865;28;20684;-66
2021/06/20 11:57:05;;;;;;;5.40;4.90;;;25.20;60.20;;;;;;5092467;28;20174;-72
2021/06/20 11:59:35;;;;;;;6.00;5.50;;;25.20;60.40;;;;;;5092095;28;20187;-73
2021/06/20 12:02:01;;;;;;;5.35;4.95;;;25.20;60.30;;;;;;5091951;28;20639;-73
2021/06/20 12:04:29;;;;;;;4.97;4.55;;;25.20;60.20;;;;;;5092525;28;20707;-73
2021/06/20 12:06:55;;;;;;;5.28;4.85;;;25.30;60.00;;;;;;5074542;28;20178;-73
2021/06/20 12:09:22;;;;;;;5.22;4.82;;;25.30;59.90;;;;;;5091669;28;20216;-73
2021/06/20 12:11:58;;;;;;;5.25;4.57;;;25.20;59.90;;;;;;5092209;28;20201;-74
2021/06/20 12:14:24;;;;;;;5.50;5.00;;;25.20;60.00;;;;;;5074761;28;20174;-72
2021/06/20 12:16:50;;;;;;;5.18;4.80;;;25.20;60.00;;;;;;5091314;28;20578;-73
2021/06/20 12:19:16;;;;;;;5.78;4.95;;;25.10;60.00;;;;;;5092285;28;20207;-72
2021/06/20 12:21:42;;;;;;;5.07;4.68;;;25.00;60.00;;;;;;5091485;28;20177;-72
2021/06/20 12:24:11;;;;;;;5.45;4.60;;;25.00;60.00;;;;;;5092297;28;20182;-71
2021/06/20 12:26:37;;;;;;;5.50;4.88;;;24.90;59.90;;;;;;5088596;28;20177;-72
2021/06/20 12:29:04;;;;;;;5.47;4.97;;;24.90;60.00;;;;;;5091086;28;20597;-69
2021/06/20 12:31:30;;;;;;;5.65;5.15;;;24.80;60.00;;;;;;5091953;28;20480;-69